sensor_id;sensor_type;location;lat;lon;timestamp;P1;durP1;ratioP1;P2;durP2;ratioP2
65825;SDS011;52586;-43.152;172.732;2023-02-28T00:00:30;1.23;;;0.98;;
65825;SDS011;52586;-43.152;172.732;2023-02-28T00:03:01;1.10;;;0.90;;
65825;SDS011;52586;-43.152;172.732;2023-02-28T00:05:34;1.48;;;1.15;;
65825;SDS011;52586;-43.152;172.732;2023-02-28T00:08:05;0.98;;;0.80;;
65825;SDS011;52586;-43.152;172.732;2023-02-28T00:10:36;1.10;;;1.00;;
65825;SDS011;52586;-43.152;172.732;2023-02-28T00:13:07;1.15;;;0.80;;
65825;SDS011;52586;-43.152;172.732;2023-02-28T00:15:37;1.27;;;0.90;;
65825;SDS011;52586;-43.152;172.732;2023-02-28T00:18:08;1.15;;;1.00;;
65825;SDS011;52586;-43.152;172.732;2023-02-28T00:20:41;1.23;;;0.85;;
65825;SDS011;52586;-43.152;172.732;2023-02-28T00:23:12;1.27;;;1.08;;
65825;SDS011;52586;-43.152;172.732;2023-02-28T00:25:42;0.90;;;0.90;;
65825;SDS011;52586;-43.152;172.732;2023-02-28T00:28:13;1.20;;;1.10;;
65825;SDS011;52586;-43.152;172.732;2023-02-28T00:30:44;1.85;;;1.10;;
65825;SDS011;52586;-43.152;172.732;2023-02-28T00:33:15;1.75;;;0.95;;
65825;SDS011;52586;-43.152;172.732;2023-02-28T00:35:48;1.10;;;1.00;;
65825;SDS011;52586;-43.152;172.732;2023-02-28T00:38:18;1.23;;;1.00;;
65825;SDS011;52586;-43.152;172.732;2023-02-28T00:40:49;2.25;;;1.13;;
65825;SDS011;52586;-43.152;172.732;2023-02-28T00:43:20;1.35;;;1.10;;
65825;SDS011;52586;-43.152;172.732;2023-02-28T00:45:50;1.08;;;1.00;;
65825;SDS011;52586;-43.152;172.732;2023-02-28T00:48:21;1.00;;;0.90;;
65825;SDS011;52586;-43.152;172.732;2023-02-28T00:50:53;1.17;;;1.08;;
65825;SDS011;52586;-43.152;172.732;2023-02-28T00:53:24;1.08;;;1.00;;
65825;SDS011;52586;-43.152;172.732;2023-02-28T00:55:55;1.30;;;0.90;;
65825;SDS011;52586;-43.152;172.732;2023-02-28T00:58:26;1.85;;;1.00;;
65825;SDS011;52586;-43.152;172.732;2023-02-28T01:01:00;1.42;;;1.10;;
65825;SDS011;52586;-43.152;172.732;2023-02-28T01:03:30;1.23;;;0.90;;
65825;SDS011;52586;-43.152;172.732;2023-02-28T01:06:03;1.45;;;1.13;;
65825;SDS011;52586;-43.152;172.732;2023-02-28T01:08:34;2.03;;;1.27;;
65825;SDS011;52586;-43.152;172.732;2023-02-28T01:11:08;1.10;;;0.90;;
65825;SDS011;52586;-43.152;172.732;2023-02-28T01:13:39;1.77;;;1.17;;
65825;SDS011;52586;-43.152;172.732;2023-02-28T01:16:10;0.82;;;0.82;;
65825;SDS011;52586;-43.152;172.732;2023-02-28T01:18:41;1.42;;;1.20;;
65825;SDS011;52586;-43.152;172.732;2023-02-28T01:21:14;1.35;;;1.20;;
65825;SDS011;52586;-43.152;172.732;2023-02-28T01:23:45;1.30;;;1.20;;
65825;SDS011;52586;-43.152;172.732;2023-02-28T01:26:17;1.55;;;1.00;;
65825;SDS011;52586;-43.152;172.732;2023-02-28T01:28:49;1.20;;;1.08;;
65825;SDS011;52586;-43.152;172.732;2023-02-28T01:31:21;1.00;;;1.00;;
65825;SDS011;52586;-43.152;172.732;2023-02-28T01:33:52;1.30;;;1.20;;
65825;SDS011;52586;-43.152;172.732;2023-02-28T01:36:25;1.25;;;1.15;;
65825;SDS011;52586;-43.152;172.732;2023-02-28T01:38:56;1.30;;;1.20;;
65825;SDS011;52586;-43.152;172.732;2023-02-28T01:41:27;1.65;;;1.20;;
65825;SDS011;52586;-43.152;172.732;2023-02-28T01:44:00;2.53;;;1.13;;
65825;SDS011;52586;-43.152;172.732;2023-02-28T01:46:33;1.20;;;1.10;;
65825;SDS011;52586;-43.152;172.732;2023-02-28T01:49:06;1.20;;;1.10;;
65825;SDS011;52586;-43.152;172.732;2023-02-28T01:51:42;1.55;;;1.30;;
65825;SDS011;52586;-43.152;172.732;2023-02-28T01:54:17;2.08;;;1.30;;
65825;SDS011;52586;-43.152;172.732;2023-02-28T01:56:50;1.27;;;1.17;;
65825;SDS011;52586;-43.152;172.732;2023-02-28T01:59:27;1.10;;;1.00;;
65825;SDS011;52586;-43.152;172.732;2023-02-28T02:01:58;1.45;;;1.35;;
65825;SDS011;52586;-43.152;172.732;2023-02-28T02:04:32;1.15;;;1.10;;
65825;SDS011;52586;-43.152;172.732;2023-02-28T02:07:08;1.58;;;1.48;;
65825;SDS011;52586;-43.152;172.732;2023-02-28T02:09:40;2.17;;;1.13;;
65825;SDS011;52586;-43.152;172.732;2023-02-28T02:12:12;1.70;;;1.13;;
65825;SDS011;52586;-43.152;172.732;2023-02-28T02:14:57;1.52;;;1.30;;
65825;SDS011;52586;-43.152;172.732;2023-02-28T02:17:35;1.23;;;1.13;;
65825;SDS011;52586;-43.152;172.732;2023-02-28T02:23:37;1.65;;;1.17;;
65825;SDS011;52586;-43.152;172.732;2023-02-28T02:26:42;1.23;;;1.13;;
65825;SDS011;52586;-43.152;172.732;2023-02-28T02:29:42;1.33;;;1.20;;
65825;SDS011;52586;-43.152;172.732;2023-02-28T02:35:25;1.63;;;1.33;;
65825;SDS011;52586;-43.152;172.732;2023-02-28T02:38:03;1.40;;;1.20;;
65825;SDS011;52586;-43.152;172.732;2023-02-28T02:40:42;1.92;;;1.35;;
65825;SDS011;52586;-43.152;172.732;2023-02-28T02:43:18;1.45;;;1.35;;
65825;SDS011;52586;-43.152;172.732;2023-02-28T02:45:52;1.30;;;1.20;;
65825;SDS011;52586;-43.152;172.732;2023-02-28T02:48:24;1.15;;;1.08;;
65825;SDS011;52586;-43.152;172.732;2023-02-28T02:50:58;2.47;;;1.58;;
65825;SDS011;52586;-43.152;172.732;2023-02-28T02:53:30;1.42;;;1.33;;
65825;SDS011;52586;-43.152;172.732;2023-02-28T02:56:06;1.30;;;1.20;;
65825;SDS011;52586;-43.152;172.732;2023-02-28T02:58:38;3.35;;;1.40;;
65825;SDS011;52586;-43.152;172.732;2023-02-28T03:01:12;1.50;;;1.20;;
65825;SDS011;52586;-43.152;172.732;2023-02-28T03:03:54;1.40;;;1.30;;
65825;SDS011;52586;-43.152;172.732;2023-02-28T03:06:28;1.95;;;1.13;;
65825;SDS011;52586;-43.152;172.732;2023-02-28T03:09:00;1.48;;;1.30;;
65825;SDS011;52586;-43.152;172.732;2023-02-28T03:11:30;1.30;;;1.20;;
65825;SDS011;52586;-43.152;172.732;2023-02-28T03:14:09;1.02;;;1.02;;
65825;SDS011;52586;-43.152;172.732;2023-02-28T03:16:56;1.08;;;1.00;;
65825;SDS011;52586;-43.152;172.732;2023-02-28T03:19:44;1.85;;;1.30;;
65825;SDS011;52586;-43.152;172.732;2023-02-28T03:22:28;1.42;;;1.30;;
65825;SDS011;52586;-43.152;172.732;2023-02-28T03:25:08;1.38;;;1.17;;
65825;SDS011;52586;-43.152;172.732;2023-02-28T03:27:48;1.45;;;1.35;;
65825;SDS011;52586;-43.152;172.732;2023-02-28T03:30:26;1.35;;;1.25;;
65825;SDS011;52586;-43.152;172.732;2023-02-28T03:33:03;1.45;;;1.33;;
65825;SDS011;52586;-43.152;172.732;2023-02-28T03:35:39;1.30;;;1.20;;
65825;SDS011;52586;-43.152;172.732;2023-02-28T03:38:15;1.35;;;1.25;;
65825;SDS011;52586;-43.152;172.732;2023-02-28T03:40:51;1.10;;;1.00;;
65825;SDS011;52586;-43.152;172.732;2023-02-28T03:43:27;1.67;;;1.52;;
65825;SDS011;52586;-43.152;172.732;2023-02-28T03:46:01;1.40;;;1.27;;
65825;SDS011;52586;-43.152;172.732;2023-02-28T03:48:39;1.10;;;1.10;;
65825;SDS011;52586;-43.152;172.732;2023-02-28T03:51:13;1.40;;;1.30;;
65825;SDS011;52586;-43.152;172.732;2023-02-28T03:53:49;1.23;;;1.13;;
65825;SDS011;52586;-43.152;172.732;2023-02-28T03:56:22;2.15;;;1.30;;
65825;SDS011;52586;-43.152;172.732;2023-02-28T03:59:00;1.45;;;1.35;;
65825;SDS011;52586;-43.152;172.732;2023-02-28T04:01:36;1.55;;;1.33;;
65825;SDS011;52586;-43.152;172.732;2023-02-28T04:04:09;1.80;;;1.38;;
65825;SDS011;52586;-43.152;172.732;2023-02-28T04:06:41;1.33;;;1.20;;
65825;SDS011;52586;-43.152;172.732;2023-02-28T04:09:15;1.17;;;1.08;;
65825;SDS011;52586;-43.152;172.732;2023-02-28T04:11:45;1.30;;;1.25;;
65825;SDS011;52586;-43.152;172.732;2023-02-28T04:14:21;1.15;;;1.05;;
65825;SDS011;52586;-43.152;172.732;2023-02-28T04:16:52;1.30;;;1.17;;
65825;SDS011;52586;-43.152;172.732;2023-02-28T04:19:23;2.38;;;1.25;;
65825;SDS011;52586;-43.152;172.732;2023-02-28T04:21:53;1.20;;;1.10;;
65825;SDS011;52586;-43.152;172.732;2023-02-28T04:24:26;1.45;;;1.20;;
65825;SDS011;52586;-43.152;172.732;2023-02-28T04:26:57;1.20;;;1.10;;
65825;SDS011;52586;-43.152;172.732;2023-02-28T04:29:28;1.40;;;1.30;;
65825;SDS011;52586;-43.152;172.732;2023-02-28T04:32:00;1.83;;;1.38;;
65825;SDS011;52586;-43.152;172.732;2023-02-28T04:34:31;1.40;;;1.30;;
65825;SDS011;52586;-43.152;172.732;2023-02-28T04:37:02;1.60;;;1.20;;
65825;SDS011;52586;-43.152;172.732;2023-02-28T04:39:36;1.48;;;1.00;;
65825;SDS011;52586;-43.152;172.732;2023-02-28T04:42:07;1.20;;;1.10;;
65825;SDS011;52586;-43.152;172.732;2023-02-28T04:44:38;1.55;;;1.30;;
65825;SDS011;52586;-43.152;172.732;2023-02-28T04:47:08;1.55;;;1.25;;
65825;SDS011;52586;-43.152;172.732;2023-02-28T04:49:39;1.17;;;1.08;;
65825;SDS011;52586;-43.152;172.732;2023-02-28T04:52:10;1.75;;;1.40;;
65825;SDS011;52586;-43.152;172.732;2023-02-28T04:54:43;1.95;;;1.30;;
65825;SDS011;52586;-43.152;172.732;2023-02-28T04:57:13;1.23;;;1.13;;
65825;SDS011;52586;-43.152;172.732;2023-02-28T04:59:44;1.20;;;1.10;;
65825;SDS011;52586;-43.152;172.732;2023-02-28T05:02:15;1.38;;;1.10;;
65825;SDS011;52586;-43.152;172.732;2023-02-28T05:04:47;1.33;;;1.20;;
65825;SDS011;52586;-43.152;172.732;2023-02-28T05:07:17;1.00;;;1.00;;
65825;SDS011;52586;-43.152;172.732;2023-02-28T05:09:50;1.08;;;1.08;;
65825;SDS011;52586;-43.152;172.732;2023-02-28T05:12:21;1.17;;;1.08;;
65825;SDS011;52586;-43.152;172.732;2023-02-28T05:14:51;1.85;;;1.20;;
65825;SDS011;52586;-43.152;172.732;2023-02-28T05:17:22;2.05;;;1.25;;
65825;SDS011;52586;-43.152;172.732;2023-02-28T05:19:53;1.30;;;1.20;;
65825;SDS011;52586;-43.152;172.732;2023-02-28T05:22:23;1.67;;;1.10;;
65825;SDS011;52586;-43.152;172.732;2023-02-28T05:24:58;2.25;;;1.25;;
65825;SDS011;52586;-43.152;172.732;2023-02-28T05:27:28;1.42;;;1.20;;
65825;SDS011;52586;-43.152;172.732;2023-02-28T05:29:59;1.23;;;1.13;;
65825;SDS011;52586;-43.152;172.732;2023-02-28T05:32:30;1.27;;;1.17;;
65825;SDS011;52586;-43.152;172.732;2023-02-28T05:35:01;1.17;;;1.10;;
65825;SDS011;52586;-43.152;172.732;2023-02-28T05:37:32;1.25;;;1.10;;
65825;SDS011;52586;-43.152;172.732;2023-02-28T05:40:05;1.02;;;0.98;;
65825;SDS011;52586;-43.152;172.732;2023-02-28T05:42:37;1.65;;;1.17;;
65825;SDS011;52586;-43.152;172.732;2023-02-28T05:45:08;1.20;;;1.10;;
65825;SDS011;52586;-43.152;172.732;2023-02-28T05:47:39;2.88;;;1.33;;
65825;SDS011;52586;-43.152;172.732;2023-02-28T05:50:10;1.30;;;1.20;;
65825;SDS011;52586;-43.152;172.732;2023-02-28T05:52:40;1.15;;;1.02;;
65825;SDS011;52586;-43.152;172.732;2023-02-28T05:55:13;1.67;;;1.10;;
65825;SDS011;52586;-43.152;172.732;2023-02-28T05:57:44;1.10;;;1.00;;
65825;SDS011;52586;-43.152;172.732;2023-02-28T06:00:15;0.93;;;0.90;;
65825;SDS011;52586;-43.152;172.732;2023-02-28T06:02:46;2.15;;;1.10;;
65825;SDS011;52586;-43.152;172.732;2023-02-28T06:05:17;1.70;;;1.25;;
65825;SDS011;52586;-43.152;172.732;2023-02-28T06:07:48;1.20;;;1.10;;
65825;SDS011;52586;-43.152;172.732;2023-02-28T06:10:21;1.48;;;1.20;;
65825;SDS011;52586;-43.152;172.732;2023-02-28T06:12:51;0.98;;;0.98;;
65825;SDS011;52586;-43.152;172.732;2023-02-28T06:15:22;1.10;;;1.00;;
65825;SDS011;52586;-43.152;172.732;2023-02-28T06:17:53;1.00;;;1.00;;
65825;SDS011;52586;-43.152;172.732;2023-02-28T06:20:24;1.10;;;1.00;;
65825;SDS011;52586;-43.152;172.732;2023-02-28T06:22:55;1.27;;;1.10;;
65825;SDS011;52586;-43.152;172.732;2023-02-28T06:25:28;1.20;;;1.10;;
65825;SDS011;52586;-43.152;172.732;2023-02-28T06:27:59;1.65;;;1.33;;
65825;SDS011;52586;-43.152;172.732;2023-02-28T06:30:30;1.35;;;1.25;;
65825;SDS011;52586;-43.152;172.732;2023-02-28T06:33:00;1.50;;;1.33;;
65825;SDS011;52586;-43.152;172.732;2023-02-28T06:35:31;2.17;;;1.23;;
65825;SDS011;52586;-43.152;172.732;2023-02-28T06:38:02;1.05;;;1.00;;
65825;SDS011;52586;-43.152;172.732;2023-02-28T06:40:34;1.95;;;1.10;;
65825;SDS011;52586;-43.152;172.732;2023-02-28T06:43:05;1.90;;;1.20;;
65825;SDS011;52586;-43.152;172.732;2023-02-28T06:45:37;1.33;;;1.00;;
65825;SDS011;52586;-43.152;172.732;2023-02-28T06:48:11;3.00;;;1.13;;
65825;SDS011;52586;-43.152;172.732;2023-02-28T06:50:42;1.23;;;0.93;;
65825;SDS011;52586;-43.152;172.732;2023-02-28T06:53:13;1.88;;;1.45;;
65825;SDS011;52586;-43.152;172.732;2023-02-28T06:55:45;1.10;;;1.00;;
65825;SDS011;52586;-43.152;172.732;2023-02-28T06:58:16;1.25;;;1.02;;
65825;SDS011;52586;-43.152;172.732;2023-02-28T07:00:54;0.90;;;0.90;;
65825;SDS011;52586;-43.152;172.732;2023-02-28T07:03:25;1.27;;;1.17;;
65825;SDS011;52586;-43.152;172.732;2023-02-28T07:05:56;1.23;;;1.10;;
65825;SDS011;52586;-43.152;172.732;2023-02-28T07:08:27;2.03;;;1.27;;
65825;SDS011;52586;-43.152;172.732;2023-02-28T07:10:59;1.85;;;1.20;;
65825;SDS011;52586;-43.152;172.732;2023-02-28T07:13:30;1.30;;;1.20;;
65825;SDS011;52586;-43.152;172.732;2023-02-28T07:16:01;5.05;;;1.20;;
65825;SDS011;52586;-43.152;172.732;2023-02-28T07:18:33;3.55;;;1.27;;
65825;SDS011;52586;-43.152;172.732;2023-02-28T07:21:05;2.05;;;1.35;;
65825;SDS011;52586;-43.152;172.732;2023-02-28T07:23:36;1.35;;;0.98;;
65825;SDS011;52586;-43.152;172.732;2023-02-28T07:26:10;4.20;;;1.30;;
65825;SDS011;52586;-43.152;172.732;2023-02-28T07:28:43;1.40;;;1.20;;
65825;SDS011;52586;-43.152;172.732;2023-02-28T07:31:15;1.67;;;1.23;;
65825;SDS011;52586;-43.152;172.732;2023-02-28T07:33:46;2.33;;;1.25;;
65825;SDS011;52586;-43.152;172.732;2023-02-28T07:36:17;1.92;;;1.20;;
65825;SDS011;52586;-43.152;172.732;2023-02-28T07:38:48;1.35;;;0.95;;
65825;SDS011;52586;-43.152;172.732;2023-02-28T07:41:21;2.50;;;1.20;;
65825;SDS011;52586;-43.152;172.732;2023-02-28T07:43:53;1.98;;;0.90;;
65825;SDS011;52586;-43.152;172.732;2023-02-28T07:46:25;1.65;;;1.20;;
65825;SDS011;52586;-43.152;172.732;2023-02-28T07:49:01;1.65;;;1.30;;
65825;SDS011;52586;-43.152;172.732;2023-02-28T07:51:32;0.90;;;0.90;;
65825;SDS011;52586;-43.152;172.732;2023-02-28T07:54:03;1.58;;;0.90;;
65825;SDS011;52586;-43.152;172.732;2023-02-28T07:56:35;0.95;;;0.93;;
65825;SDS011;52586;-43.152;172.732;2023-02-28T07:59:06;2.13;;;0.90;;
65825;SDS011;52586;-43.152;172.732;2023-02-28T08:01:37;2.58;;;1.08;;
65825;SDS011;52586;-43.152;172.732;2023-02-28T08:04:07;1.20;;;1.10;;
65825;SDS011;52586;-43.152;172.732;2023-02-28T08:06:38;2.72;;;1.13;;
65825;SDS011;52586;-43.152;172.732;2023-02-28T08:09:09;2.45;;;1.38;;
65825;SDS011;52586;-43.152;172.732;2023-02-28T08:11:42;2.58;;;1.30;;
65825;SDS011;52586;-43.152;172.732;2023-02-28T08:14:13;4.05;;;1.35;;
65825;SDS011;52586;-43.152;172.732;2023-02-28T08:16:43;2.58;;;1.20;;
65825;SDS011;52586;-43.152;172.732;2023-02-28T08:19:14;1.33;;;1.10;;
65825;SDS011;52586;-43.152;172.732;2023-02-28T08:21:45;1.63;;;1.40;;
65825;SDS011;52586;-43.152;172.732;2023-02-28T08:24:15;2.42;;;1.20;;
65825;SDS011;52586;-43.152;172.732;2023-02-28T08:26:48;2.65;;;1.30;;
65825;SDS011;52586;-43.152;172.732;2023-02-28T08:29:19;2.10;;;1.20;;
65825;SDS011;52586;-43.152;172.732;2023-02-28T08:31:49;1.10;;;1.00;;
65825;SDS011;52586;-43.152;172.732;2023-02-28T08:34:20;3.90;;;1.30;;
65825;SDS011;52586;-43.152;172.732;2023-02-28T08:36:51;1.55;;;1.30;;
65825;SDS011;52586;-43.152;172.732;2023-02-28T08:39:22;3.03;;;1.30;;
65825;SDS011;52586;-43.152;172.732;2023-02-28T08:41:54;3.47;;;1.40;;
65825;SDS011;52586;-43.152;172.732;2023-02-28T08:44:25;2.45;;;1.58;;
65825;SDS011;52586;-43.152;172.732;2023-02-28T08:46:55;3.15;;;1.50;;
65825;SDS011;52586;-43.152;172.732;2023-02-28T08:49:26;3.70;;;1.75;;
65825;SDS011;52586;-43.152;172.732;2023-02-28T08:51:57;5.40;;;1.70;;
65825;SDS011;52586;-43.152;172.732;2023-02-28T08:54:27;2.83;;;1.60;;
65825;SDS011;52586;-43.152;172.732;2023-02-28T08:57:01;4.00;;;1.70;;
65825;SDS011;52586;-43.152;172.732;2023-02-28T08:59:32;8.15;;;1.88;;
65825;SDS011;52586;-43.152;172.732;2023-02-28T09:02:03;3.65;;;1.70;;
65825;SDS011;52586;-43.152;172.732;2023-02-28T09:04:33;2.55;;;1.67;;
65825;SDS011;52586;-43.152;172.732;2023-02-28T09:07:04;4.20;;;2.33;;
65825;SDS011;52586;-43.152;172.732;2023-02-28T09:09:35;4.38;;;2.20;;
65825;SDS011;52586;-43.152;172.732;2023-02-28T09:12:21;4.43;;;2.00;;
65825;SDS011;52586;-43.152;172.732;2023-02-28T09:14:52;3.67;;;1.95;;
65825;SDS011;52586;-43.152;172.732;2023-02-28T09:17:23;4.60;;;2.03;;
65825;SDS011;52586;-43.152;172.732;2023-02-28T09:19:54;4.20;;;2.22;;
65825;SDS011;52586;-43.152;172.732;2023-02-28T09:22:25;4.55;;;2.60;;
65825;SDS011;52586;-43.152;172.732;2023-02-28T09:24:55;2.92;;;2.10;;
65825;SDS011;52586;-43.152;172.732;2023-02-28T09:27:28;4.15;;;2.50;;
65825;SDS011;52586;-43.152;172.732;2023-02-28T09:29:59;2.83;;;1.90;;
65825;SDS011;52586;-43.152;172.732;2023-02-28T09:32:29;5.40;;;2.45;;
65825;SDS011;52586;-43.152;172.732;2023-02-28T09:35:00;2.30;;;2.03;;
65825;SDS011;52586;-43.152;172.732;2023-02-28T09:37:31;3.05;;;2.15;;
65825;SDS011;52586;-43.152;172.732;2023-02-28T09:40:01;3.97;;;2.10;;
65825;SDS011;52586;-43.152;172.732;2023-02-28T09:42:34;2.88;;;2.10;;
65825;SDS011;52586;-43.152;172.732;2023-02-28T09:45:06;3.75;;;2.17;;
65825;SDS011;52586;-43.152;172.732;2023-02-28T09:47:52;3.17;;;2.15;;
65825;SDS011;52586;-43.152;172.732;2023-02-28T09:50:29;3.42;;;1.92;;
65825;SDS011;52586;-43.152;172.732;2023-02-28T09:53:03;3.10;;;2.10;;
65825;SDS011;52586;-43.152;172.732;2023-02-28T09:55:43;2.50;;;1.63;;
65825;SDS011;52586;-43.152;172.732;2023-02-28T09:58:20;2.10;;;1.90;;
65825;SDS011;52586;-43.152;172.732;2023-02-28T10:00:56;3.05;;;2.00;;
65825;SDS011;52586;-43.152;172.732;2023-02-28T10:03:33;3.08;;;2.33;;
65825;SDS011;52586;-43.152;172.732;2023-02-28T10:06:11;2.97;;;1.83;;
65825;SDS011;52586;-43.152;172.732;2023-02-28T10:08:47;2.20;;;1.77;;
65825;SDS011;52586;-43.152;172.732;2023-02-28T10:11:25;1.90;;;1.70;;
65825;SDS011;52586;-43.152;172.732;2023-02-28T10:14:00;3.72;;;1.80;;
65825;SDS011;52586;-43.152;172.732;2023-02-28T10:16:34;2.85;;;1.75;;
65825;SDS011;52586;-43.152;172.732;2023-02-28T10:19:10;2.90;;;2.10;;
65825;SDS011;52586;-43.152;172.732;2023-02-28T10:21:47;2.47;;;1.80;;
65825;SDS011;52586;-43.152;172.732;2023-02-28T10:24:26;3.08;;;2.00;;
65825;SDS011;52586;-43.152;172.732;2023-02-28T10:27:01;2.13;;;1.77;;
65825;SDS011;52586;-43.152;172.732;2023-02-28T10:29:44;3.47;;;2.05;;
65825;SDS011;52586;-43.152;172.732;2023-02-28T10:32:17;2.20;;;1.70;;
65825;SDS011;52586;-43.152;172.732;2023-02-28T10:34:51;3.78;;;1.83;;
65825;SDS011;52586;-43.152;172.732;2023-02-28T10:37:24;3.65;;;2.15;;
65825;SDS011;52586;-43.152;172.732;2023-02-28T10:39:55;2.47;;;2.05;;
65825;SDS011;52586;-43.152;172.732;2023-02-28T10:42:26;2.42;;;1.67;;
65825;SDS011;52586;-43.152;172.732;2023-02-28T10:47:49;4.00;;;2.03;;
65825;SDS011;52586;-43.152;172.732;2023-02-28T10:50:31;2.42;;;2.00;;
65825;SDS011;52586;-43.152;172.732;2023-02-28T10:53:10;2.45;;;1.92;;
65825;SDS011;52586;-43.152;172.732;2023-02-28T10:55:56;1.55;;;1.42;;
65825;SDS011;52586;-43.152;172.732;2023-02-28T10:58:28;2.95;;;1.48;;
65825;SDS011;52586;-43.152;172.732;2023-02-28T11:01:19;3.08;;;2.00;;
65825;SDS011;52586;-43.152;172.732;2023-02-28T11:03:51;2.15;;;1.63;;
65825;SDS011;52586;-43.152;172.732;2023-02-28T11:06:23;2.83;;;2.15;;
65825;SDS011;52586;-43.152;172.732;2023-02-28T11:08:58;1.83;;;1.70;;
65825;SDS011;52586;-43.152;172.732;2023-02-28T11:11:30;2.08;;;1.80;;
65825;SDS011;52586;-43.152;172.732;2023-02-28T11:14:18;2.22;;;1.50;;
65825;SDS011;52586;-43.152;172.732;2023-02-28T11:16:52;2.42;;;1.80;;
65825;SDS011;52586;-43.152;172.732;2023-02-28T11:19:26;2.15;;;1.40;;
65825;SDS011;52586;-43.152;172.732;2023-02-28T11:22:02;2.60;;;1.80;;
65825;SDS011;52586;-43.152;172.732;2023-02-28T11:24:35;1.65;;;1.55;;
65825;SDS011;52586;-43.152;172.732;2023-02-28T11:27:14;2.55;;;1.40;;
65825;SDS011;52586;-43.152;172.732;2023-02-28T11:29:55;2.22;;;1.65;;
65825;SDS011;52586;-43.152;172.732;2023-02-28T11:32:29;2.65;;;1.67;;
65825;SDS011;52586;-43.152;172.732;2023-02-28T11:35:00;2.47;;;1.45;;
65825;SDS011;52586;-43.152;172.732;2023-02-28T11:37:32;2.42;;;1.90;;
65825;SDS011;52586;-43.152;172.732;2023-02-28T11:40:05;1.60;;;1.40;;
65825;SDS011;52586;-43.152;172.732;2023-02-28T11:42:46;1.98;;;1.42;;
65825;SDS011;52586;-43.152;172.732;2023-02-28T11:45:31;2.03;;;1.52;;
65825;SDS011;52586;-43.152;172.732;2023-02-28T11:48:16;2.05;;;1.48;;
65825;SDS011;52586;-43.152;172.732;2023-02-28T11:50:54;2.28;;;1.52;;
65825;SDS011;52586;-43.152;172.732;2023-02-28T11:53:43;1.42;;;1.27;;
65825;SDS011;52586;-43.152;172.732;2023-02-28T11:56:36;1.73;;;1.35;;
65825;SDS011;52586;-43.152;172.732;2023-02-28T11:59:14;1.73;;;1.45;;
65825;SDS011;52586;-43.152;172.732;2023-02-28T12:02:22;1.92;;;1.40;;
65825;SDS011;52586;-43.152;172.732;2023-02-28T12:05:01;1.77;;;1.52;;
65825;SDS011;52586;-43.152;172.732;2023-02-28T12:07:47;2.45;;;1.50;;
65825;SDS011;52586;-43.152;172.732;2023-02-28T12:10:28;1.70;;;1.30;;
65825;SDS011;52586;-43.152;172.732;2023-02-28T12:13:10;2.28;;;1.50;;
65825;SDS011;52586;-43.152;172.732;2023-02-28T12:15:53;1.88;;;1.50;;
65825;SDS011;52586;-43.152;172.732;2023-02-28T12:18:45;2.17;;;1.42;;
65825;SDS011;52586;-43.152;172.732;2023-02-28T12:21:30;2.05;;;1.30;;
65825;SDS011;52586;-43.152;172.732;2023-02-28T12:24:17;2.10;;;1.45;;
65825;SDS011;52586;-43.152;172.732;2023-02-28T12:27:07;1.50;;;1.40;;
65825;SDS011;52586;-43.152;172.732;2023-02-28T12:29:43;1.98;;;1.17;;
65825;SDS011;52586;-43.152;172.732;2023-02-28T12:32:19;2.25;;;1.60;;
65825;SDS011;52586;-43.152;172.732;2023-02-28T12:34:55;1.55;;;1.30;;
65825;SDS011;52586;-43.152;172.732;2023-02-28T12:37:33;1.35;;;1.25;;
65825;SDS011;52586;-43.152;172.732;2023-02-28T12:40:11;1.90;;;1.38;;
65825;SDS011;52586;-43.152;172.732;2023-02-28T12:42:44;1.42;;;1.27;;
65825;SDS011;52586;-43.152;172.732;2023-02-28T12:45:19;1.55;;;1.33;;
65825;SDS011;52586;-43.152;172.732;2023-02-28T12:47:52;1.30;;;1.20;;
65825;SDS011;52586;-43.152;172.732;2023-02-28T12:50:27;2.83;;;1.05;;
65825;SDS011;52586;-43.152;172.732;2023-02-28T12:53:01;1.95;;;1.50;;
65825;SDS011;52586;-43.152;172.732;2023-02-28T12:55:37;1.83;;;1.45;;
65825;SDS011;52586;-43.152;172.732;2023-02-28T12:58:16;1.60;;;1.20;;
65825;SDS011;52586;-43.152;172.732;2023-02-28T13:01:08;1.55;;;1.40;;
65825;SDS011;52586;-43.152;172.732;2023-02-28T13:04:14;1.30;;;1.17;;
65825;SDS011;52586;-43.152;172.732;2023-02-28T13:07:18;2.22;;;1.40;;
65825;SDS011;52586;-43.152;172.732;2023-02-28T13:10:11;1.88;;;1.33;;
65825;SDS011;52586;-43.152;172.732;2023-02-28T13:12:48;1.45;;;1.23;;
65825;SDS011;52586;-43.152;172.732;2023-02-28T13:15:20;2.15;;;1.20;;
65825;SDS011;52586;-43.152;172.732;2023-02-28T13:17:55;1.35;;;1.20;;
65825;SDS011;52586;-43.152;172.732;2023-02-28T13:20:27;1.58;;;1.05;;
65825;SDS011;52586;-43.152;172.732;2023-02-28T13:23:03;1.73;;;1.42;;
65825;SDS011;52586;-43.152;172.732;2023-02-28T13:25:56;1.90;;;1.10;;
65825;SDS011;52586;-43.152;172.732;2023-02-28T13:31:33;1.58;;;1.48;;
65825;SDS011;52586;-43.152;172.732;2023-02-28T13:34:49;1.33;;;1.08;;
65825;SDS011;52586;-43.152;172.732;2023-02-28T13:44:19;1.10;;;1.00;;
65825;SDS011;52586;-43.152;172.732;2023-02-28T13:56:08;1.30;;;1.20;;
65825;SDS011;52586;-43.152;172.732;2023-02-28T13:58:53;1.30;;;1.20;;
65825;SDS011;52586;-43.152;172.732;2023-02-28T14:07:29;1.80;;;1.20;;
65825;SDS011;52586;-43.152;172.732;2023-02-28T14:10:05;1.40;;;1.05;;
65825;SDS011;52586;-43.152;172.732;2023-02-28T14:12:53;1.58;;;1.00;;
65825;SDS011;52586;-43.152;172.732;2023-02-28T14:18:21;1.67;;;1.20;;
65825;SDS011;52586;-43.152;172.732;2023-02-28T14:21:02;1.05;;;0.90;;
65825;SDS011;52586;-43.152;172.732;2023-02-28T14:26:35;1.48;;;1.23;;
65825;SDS011;52586;-43.152;172.732;2023-02-28T14:29:38;1.20;;;1.10;;
65825;SDS011;52586;-43.152;172.732;2023-02-28T14:32:33;1.40;;;1.20;;
65825;SDS011;52586;-43.152;172.732;2023-02-28T14:35:16;1.48;;;1.00;;
65825;SDS011;52586;-43.152;172.732;2023-02-28T14:37:54;1.40;;;1.30;;
65825;SDS011;52586;-43.152;172.732;2023-02-28T14:40:26;1.58;;;1.02;;
65825;SDS011;52586;-43.152;172.732;2023-02-28T14:42:59;1.20;;;1.10;;
65825;SDS011;52586;-43.152;172.732;2023-02-28T14:45:31;2.28;;;1.20;;
65825;SDS011;52586;-43.152;172.732;2023-02-28T14:48:03;1.25;;;1.00;;
65825;SDS011;52586;-43.152;172.732;2023-02-28T14:50:40;1.13;;;1.00;;
65825;SDS011;52586;-43.152;172.732;2023-02-28T14:53:20;1.40;;;1.02;;
65825;SDS011;52586;-43.152;172.732;2023-02-28T14:55:53;1.25;;;1.15;;
65825;SDS011;52586;-43.152;172.732;2023-02-28T14:58:24;1.10;;;1.00;;
65825;SDS011;52586;-43.152;172.732;2023-02-28T15:00:57;1.20;;;1.10;;
65825;SDS011;52586;-43.152;172.732;2023-02-28T15:03:30;1.00;;;0.90;;
65825;SDS011;52586;-43.152;172.732;2023-02-28T15:06:05;1.05;;;1.00;;
65825;SDS011;52586;-43.152;172.732;2023-02-28T15:08:42;0.90;;;0.90;;
65825;SDS011;52586;-43.152;172.732;2023-02-28T15:11:13;1.15;;;1.02;;
65825;SDS011;52586;-43.152;172.732;2023-02-28T15:13:48;1.65;;;1.08;;
65825;SDS011;52586;-43.152;172.732;2023-02-28T15:16:22;1.05;;;0.90;;
65825;SDS011;52586;-43.152;172.732;2023-02-28T15:18:54;1.55;;;1.23;;
65825;SDS011;52586;-43.152;172.732;2023-02-28T15:21:28;2.08;;;1.05;;
65825;SDS011;52586;-43.152;172.732;2023-02-28T15:24:02;1.55;;;1.00;;
65825;SDS011;52586;-43.152;172.732;2023-02-28T15:26:37;1.35;;;0.95;;
65825;SDS011;52586;-43.152;172.732;2023-02-28T15:29:11;2.03;;;1.17;;
65825;SDS011;52586;-43.152;172.732;2023-02-28T15:31:45;1.25;;;1.15;;